sensor_id;sensor_type;location;lat;lon;timestamp;pressure;altitude;pressure_sealevel;temperature;humidity
14269;BME280;7218;51.480;7.006;2024-02-21T00:01:34;77631.44;;;-143.00;82.85
14269;BME280;7218;51.480;7.006;2024-02-21T00:04:01;77613.47;;;-143.00;82.66
14269;BME280;7218;51.480;7.006;2024-02-21T00:06:28;77619.44;;;-143.00;82.58
14269;BME280;7218;51.480;7.006;2024-02-21T00:08:54;77645.41;;;-143.00;84.09
14269;BME280;7218;51.480;7.006;2024-02-21T00:11:21;77653.41;;;-143.00;84.14
14269;BME280;7218;51.480;7.006;2024-02-21T00:13:47;77611.47;;;-143.00;83.04
14269;BME280;7218;51.480;7.006;2024-02-21T00:16:13;77607.47;;;-143.00;82.63
14269;BME280;7218;51.480;7.006;2024-02-21T00:18:41;77611.47;;;-143.00;82.86
14269;BME280;7218;51.480;7.006;2024-02-21T00:21:09;77611.47;;;-143.00;82.95
14269;BME280;7218;51.480;7.006;2024-02-21T00:23:40;77645.41;;;-143.00;83.83
14269;BME280;7218;51.480;7.006;2024-02-21T00:26:06;77615.44;;;-143.00;83.52
14269;BME280;7218;51.480;7.006;2024-02-21T00:28:33;77615.44;;;-143.00;83.56
14269;BME280;7218;51.480;7.006;2024-02-21T00:30:59;77615.44;;;-143.00;83.60
14269;BME280;7218;51.480;7.006;2024-02-21T00:33:26;77615.44;;;-143.00;83.61
14269;BME280;7218;51.480;7.006;2024-02-21T00:35:52;77591.50;;;-143.00;82.83
14269;BME280;7218;51.480;7.006;2024-02-21T00:38:20;77541.56;;;-143.00;81.98
14269;BME280;7218;51.480;7.006;2024-02-21T00:40:46;77603.47;;;-143.00;83.73
14269;BME280;7218;51.480;7.006;2024-02-21T00:43:13;77617.44;;;-143.00;84.17
14269;BME280;7218;51.480;7.006;2024-02-21T00:45:39;77611.47;;;-143.00;84.01
14269;BME280;7218;51.480;7.006;2024-02-21T00:48:07;77583.50;;;-143.00;83.46
14269;BME280;7218;51.480;7.006;2024-02-21T00:50:33;77561.53;;;-143.00;82.71
14269;BME280;7218;51.480;7.006;2024-02-21T00:52:59;77543.56;;;-143.00;82.47
14269;BME280;7218;51.480;7.006;2024-02-21T00:55:27;77553.53;;;-143.00;83.06
14269;BME280;7218;51.480;7.006;2024-02-21T00:57:54;77579.50;;;-143.00;83.36
14269;BME280;7218;51.480;7.006;2024-02-21T01:00:20;77575.50;;;-143.00;83.26
14269;BME280;7218;51.480;7.006;2024-02-21T01:02:47;77573.50;;;-143.00;83.73
14269;BME280;7218;51.480;7.006;2024-02-21T01:05:13;77595.47;;;-143.00;84.06
14269;BME280;7218;51.480;7.006;2024-02-21T01:07:40;77575.50;;;-143.00;83.74
14269;BME280;7218;51.480;7.006;2024-02-21T01:10:07;77563.53;;;-143.00;83.66
14269;BME280;7218;51.480;7.006;2024-02-21T01:12:35;77557.53;;;-143.00;83.55
14269;BME280;7218;51.480;7.006;2024-02-21T01:15:02;77583.50;;;-143.00;84.26
14269;BME280;7218;51.480;7.006;2024-02-21T01:17:28;77551.53;;;-143.00;83.53
14269;BME280;7218;51.480;7.006;2024-02-21T01:19:55;77549.56;;;-143.00;83.31
14269;BME280;7218;51.480;7.006;2024-02-21T01:22:21;77585.50;;;-143.00;84.49
14269;BME280;7218;51.480;7.006;2024-02-21T01:24:48;77567.53;;;-143.00;84.09
14269;BME280;7218;51.480;7.006;2024-02-21T01:27:15;77553.53;;;-143.00;84.01
14269;BME280;7218;51.480;7.006;2024-02-21T01:29:43;77501.63;;;-143.00;83.11
14269;BME280;7218;51.480;7.006;2024-02-21T01:32:11;77541.56;;;-143.00;83.36
14269;BME280;7218;51.480;7.006;2024-02-21T01:34:38;77581.50;;;-143.00;85.31
14269;BME280;7218;51.480;7.006;2024-02-21T01:37:04;77543.56;;;-143.00;84.14
14269;BME280;7218;51.480;7.006;2024-02-21T01:39:32;77525.59;;;-143.00;83.24
14269;BME280;7218;51.480;7.006;2024-02-21T01:41:59;77523.59;;;-143.00;83.09
14269;BME280;7218;51.480;7.006;2024-02-21T01:44:25;77547.56;;;-143.00;84.12
14269;BME280;7218;51.480;7.006;2024-02-21T01:46:53;77515.59;;;-143.00;83.97
14269;BME280;7218;51.480;7.006;2024-02-21T01:49:21;77515.59;;;-143.00;83.57
14269;BME280;7218;51.480;7.006;2024-02-21T01:51:48;77541.56;;;-143.00;83.95
14269;BME280;7218;51.480;7.006;2024-02-21T01:54:16;77543.56;;;-143.00;84.73
14269;BME280;7218;51.480;7.006;2024-02-21T01:56:44;77545.56;;;-143.00;84.47
14269;BME280;7218;51.480;7.006;2024-02-21T01:59:11;77513.59;;;-143.00;83.65
14269;BME280;7218;51.480;7.006;2024-02-21T02:01:39;77519.59;;;-143.00;83.83
14269;BME280;7218;51.480;7.006;2024-02-21T02:04:08;77529.59;;;-143.00;84.57
14269;BME280;7218;51.480;7.006;2024-02-21T02:06:35;77549.56;;;-143.00;84.74
14269;BME280;7218;51.480;7.006;2024-02-21T02:09:01;77529.59;;;-143.00;84.46
14269;BME280;7218;51.480;7.006;2024-02-21T02:11:28;77515.59;;;-143.00;83.90
14269;BME280;7218;51.480;7.006;2024-02-21T02:13:54;77545.56;;;-143.00;84.89
14269;BME280;7218;51.480;7.006;2024-02-21T02:16:21;77519.59;;;-143.00;84.59
14269;BME280;7218;51.480;7.006;2024-02-21T02:18:47;77527.59;;;-143.00;84.87
14269;BME280;7218;51.480;7.006;2024-02-21T02:21:23;77533.56;;;-143.00;85.77
14269;BME280;7218;51.480;7.006;2024-02-21T02:23:53;77515.59;;;-143.00;85.29
14269;BME280;7218;51.480;7.006;2024-02-21T02:26:20;77523.59;;;-143.00;85.40
14269;BME280;7218;51.480;7.006;2024-02-21T02:28:46;77507.63;;;-143.00;85.19
14269;BME280;7218;51.480;7.006;2024-02-21T02:31:12;77527.59;;;-143.00;85.92
14269;BME280;7218;51.480;7.006;2024-02-21T02:33:39;77513.59;;;-143.00;85.67
14269;BME280;7218;51.480;7.006;2024-02-21T02:36:06;77525.59;;;-143.00;86.38
14269;BME280;7218;51.480;7.006;2024-02-21T02:38:32;77535.56;;;-143.00;86.39
14269;BME280;7218;51.480;7.006;2024-02-21T02:41:00;77503.63;;;-143.00;85.89
14269;BME280;7218;51.480;7.006;2024-02-21T02:43:27;77511.59;;;-143.00;85.78
14269;BME280;7218;51.480;7.006;2024-02-21T02:45:53;77487.63;;;-143.00;85.63
14269;BME280;7218;51.480;7.006;2024-02-21T02:48:20;77513.59;;;-143.00;86.48
14269;BME280;7218;51.480;7.006;2024-02-21T02:50:47;77513.59;;;-143.00;86.19
14269;BME280;7218;51.480;7.006;2024-02-21T02:53:14;77529.59;;;-143.00;86.63
14269;BME280;7218;51.480;7.006;2024-02-21T02:55:41;77507.63;;;-143.00;85.92
14269;BME280;7218;51.480;7.006;2024-02-21T02:58:09;77507.63;;;-143.00;85.82
14269;BME280;7218;51.480;7.006;2024-02-21T03:00:35;77531.56;;;-143.00;86.56
14269;BME280;7218;51.480;7.006;2024-02-21T03:03:02;77517.59;;;-143.00;86.57
14269;BME280;7218;51.480;7.006;2024-02-21T03:05:29;77533.56;;;-143.00;86.94
14269;BME280;7218;51.480;7.006;2024-02-21T03:07:56;77523.59;;;-143.00;86.44
14269;BME280;7218;51.480;7.006;2024-02-21T03:10:22;77541.56;;;-143.00;86.99
14269;BME280;7218;51.480;7.006;2024-02-21T03:12:49;77513.59;;;-143.00;86.04
14269;BME280;7218;51.480;7.006;2024-02-21T03:15:19;77483.66;;;-143.00;85.94
14269;BME280;7218;51.480;7.006;2024-02-21T03:17:45;77499.63;;;-143.00;86.28
14269;BME280;7218;51.480;7.006;2024-02-21T03:20:12;77467.66;;;-143.00;85.11
14269;BME280;7218;51.480;7.006;2024-02-21T03:22:39;77499.63;;;-143.00;85.83
14269;BME280;7218;51.480;7.006;2024-02-21T03:25:07;77499.63;;;-143.00;86.00
14269;BME280;7218;51.480;7.006;2024-02-21T03:27:34;77459.69;;;-143.00;85.33
14269;BME280;7218;51.480;7.006;2024-02-21T03:30:00;77453.69;;;-143.00;85.04
14269;BME280;7218;51.480;7.006;2024-02-21T03:32:28;77451.69;;;-143.00;85.07
14269;BME280;7218;51.480;7.006;2024-02-21T03:34:55;77471.66;;;-143.00;85.53
14269;BME280;7218;51.480;7.006;2024-02-21T03:37:21;77449.69;;;-143.00;85.00
14269;BME280;7218;51.480;7.006;2024-02-21T03:39:48;77473.66;;;-143.00;85.21
14269;BME280;7218;51.480;7.006;2024-02-21T03:42:14;77499.63;;;-143.00;86.10
14269;BME280;7218;51.480;7.006;2024-02-21T03:44:41;77467.66;;;-143.00;85.60
14269;BME280;7218;51.480;7.006;2024-02-21T03:47:07;77455.69;;;-143.00;84.51
14269;BME280;7218;51.480;7.006;2024-02-21T03:49:37;77457.69;;;-143.00;85.24
14269;BME280;7218;51.480;7.006;2024-02-21T03:52:04;77481.66;;;-143.00;85.80
14269;BME280;7218;51.480;7.006;2024-02-21T03:54:30;77493.63;;;-143.00;86.06
14269;BME280;7218;51.480;7.006;2024-02-21T03:56:57;77515.59;;;-143.00;86.16
14269;BME280;7218;51.480;7.006;2024-02-21T03:59:23;77479.66;;;-143.00;85.60
14269;BME280;7218;51.480;7.006;2024-02-21T04:01:51;77481.66;;;-143.00;85.87
14269;BME280;7218;51.480;7.006;2024-02-21T04:04:17;77503.63;;;-143.00;85.45
14269;BME280;7218;51.480;7.006;2024-02-21T04:06:48;77471.66;;;-143.00;85.38
14269;BME280;7218;51.480;7.006;2024-02-21T04:09:15;77457.69;;;-143.00;84.52
14269;BME280;7218;51.480;7.006;2024-02-21T04:11:42;77485.66;;;-143.00;85.17
14269;BME280;7218;51.480;7.006;2024-02-21T04:14:08;77487.63;;;-143.00;84.97
14269;BME280;7218;51.480;7.006;2024-02-21T04:16:36;77509.59;;;-143.00;86.13
14269;BME280;7218;51.480;7.006;2024-02-21T04:19:03;77499.63;;;-143.00;85.82
14269;BME280;7218;51.480;7.006;2024-02-21T04:21:29;77475.66;;;-143.00;85.48
14269;BME280;7218;51.480;7.006;2024-02-21T04:23:57;77479.66;;;-143.00;85.62
14269;BME280;7218;51.480;7.006;2024-02-21T04:26:23;77497.63;;;-143.00;86.08
14269;BME280;7218;51.480;7.006;2024-02-21T04:28:50;77471.66;;;-143.00;85.21
14269;BME280;7218;51.480;7.006;2024-02-21T04:31:16;77483.66;;;-143.00;84.92
14269;BME280;7218;51.480;7.006;2024-02-21T04:33:43;77491.63;;;-143.00;85.02
14269;BME280;7218;51.480;7.006;2024-02-21T04:36:09;77499.63;;;-143.00;84.99
14269;BME280;7218;51.480;7.006;2024-02-21T04:38:36;77485.66;;;-143.00;84.79
14269;BME280;7218;51.480;7.006;2024-02-21T04:41:05;77431.72;;;-143.00;83.77
14269;BME280;7218;51.480;7.006;2024-02-21T04:43:32;77457.69;;;-143.00;83.92
14269;BME280;7218;51.480;7.006;2024-02-21T04:45:58;77427.72;;;-143.00;83.09
14269;BME280;7218;51.480;7.006;2024-02-21T04:48:25;77431.72;;;-143.00;83.42
14269;BME280;7218;51.480;7.006;2024-02-21T04:50:52;77459.69;;;-143.00;83.98
14269;BME280;7218;51.480;7.006;2024-02-21T04:53:18;77441.72;;;-143.00;83.71
14269;BME280;7218;51.480;7.006;2024-02-21T04:55:44;77413.75;;;-143.00;83.08
14269;BME280;7218;51.480;7.006;2024-02-21T04:58:12;77429.72;;;-143.00;83.41
14269;BME280;7218;51.480;7.006;2024-02-21T05:00:39;77455.69;;;-143.00;83.21
14269;BME280;7218;51.480;7.006;2024-02-21T05:03:05;77441.72;;;-143.00;83.07
14269;BME280;7218;51.480;7.006;2024-02-21T05:05:32;77461.69;;;-143.00;83.43
14269;BME280;7218;51.480;7.006;2024-02-21T05:07:58;77459.69;;;-143.00;82.56
14269;BME280;7218;51.480;7.006;2024-02-21T05:10:25;77421.75;;;-143.00;81.96
14269;BME280;7218;51.480;7.006;2024-02-21T05:12:51;77407.75;;;-143.00;81.34
14269;BME280;7218;51.480;7.006;2024-02-21T05:15:19;77437.72;;;-143.00;82.05
14269;BME280;7218;51.480;7.006;2024-02-21T05:17:45;77403.75;;;-143.00;81.60
14269;BME280;7218;51.480;7.006;2024-02-21T05:20:12;77375.81;;;-143.00;80.73
14269;BME280;7218;51.480;7.006;2024-02-21T05:22:38;77397.78;;;-143.00;81.14
14269;BME280;7218;51.480;7.006;2024-02-21T05:25:06;77395.78;;;-143.00;81.01
14269;BME280;7218;51.480;7.006;2024-02-21T05:27:33;77407.75;;;-143.00;81.38
14269;BME280;7218;51.480;7.006;2024-02-21T05:30:00;77421.75;;;-143.00;81.65
14269;BME280;7218;51.480;7.006;2024-02-21T05:32:28;77373.81;;;-143.00;81.10
14269;BME280;7218;51.480;7.006;2024-02-21T05:34:55;77393.78;;;-143.00;81.51
14269;BME280;7218;51.480;7.006;2024-02-21T05:37:23;77387.78;;;-143.00;80.80
14269;BME280;7218;51.480;7.006;2024-02-21T05:39:49;77423.75;;;-143.00;81.46
14269;BME280;7218;51.480;7.006;2024-02-21T05:42:16;77389.78;;;-143.00;81.01
14269;BME280;7218;51.480;7.006;2024-02-21T05:44:42;77381.81;;;-143.00;80.85
14269;BME280;7218;51.480;7.006;2024-02-21T05:47:09;77395.78;;;-143.00;80.97
14269;BME280;7218;51.480;7.006;2024-02-21T05:49:39;77387.78;;;-143.00;81.10
14269;BME280;7218;51.480;7.006;2024-02-21T05:52:06;77385.78;;;-143.00;80.80
14269;BME280;7218;51.480;7.006;2024-02-21T05:54:32;77395.78;;;-143.00;80.92
14269;BME280;7218;51.480;7.006;2024-02-21T05:56:59;77399.78;;;-143.00;81.29
14269;BME280;7218;51.480;7.006;2024-02-21T05:59:25;77363.81;;;-143.00;80.64
14269;BME280;7218;51.480;7.006;2024-02-21T06:01:55;77361.84;;;-143.00;80.48
14269;BME280;7218;51.480;7.006;2024-02-21T06:04:23;77347.84;;;-143.00;80.15
14269;BME280;7218;51.480;7.006;2024-02-21T06:06:51;77335.88;;;-143.00;79.53
14269;BME280;7218;51.480;7.006;2024-02-21T06:09:17;77359.84;;;-143.00;80.30
14269;BME280;7218;51.480;7.006;2024-02-21T06:11:43;77375.81;;;-143.00;80.72
14269;BME280;7218;51.480;7.006;2024-02-21T06:14:11;77385.78;;;-143.00;81.09
14269;BME280;7218;51.480;7.006;2024-02-21T06:16:37;77381.81;;;-143.00;80.73
14269;BME280;7218;51.480;7.006;2024-02-21T06:19:04;77381.81;;;-143.00;80.97
14269;BME280;7218;51.480;7.006;2024-02-21T06:21:30;77401.78;;;-143.00;81.46
14269;BME280;7218;51.480;7.006;2024-02-21T06:23:58;77327.88;;;-143.00;79.80
14269;BME280;7218;51.480;7.006;2024-02-21T06:26:25;77355.84;;;-143.00;80.36
14269;BME280;7218;51.480;7.006;2024-02-21T06:28:51;77353.84;;;-143.00;80.35
14269;BME280;7218;51.480;7.006;2024-02-21T06:31:18;77371.81;;;-143.00;80.43
14269;BME280;7218;51.480;7.006;2024-02-21T06:33:45;77347.84;;;-143.00;80.25
14269;BME280;7218;51.480;7.006;2024-02-21T06:36:13;77347.84;;;-143.00;80.08
14269;BME280;7218;51.480;7.006;2024-02-21T06:38:40;77345.84;;;-143.00;80.29
14269;BME280;7218;51.480;7.006;2024-02-21T06:41:15;77323.88;;;-143.00;79.48
14269;BME280;7218;51.480;7.006;2024-02-21T06:43:43;77349.84;;;-143.00;80.36
14269;BME280;7218;51.480;7.006;2024-02-21T06:46:10;77311.91;;;-143.00;79.26
14269;BME280;7218;51.480;7.006;2024-02-21T06:48:36;77349.84;;;-143.00;79.77
14269;BME280;7218;51.480;7.006;2024-02-21T06:51:03;77341.84;;;-143.00;79.97
14269;BME280;7218;51.480;7.006;2024-02-21T06:53:30;77363.81;;;-143.00;80.72
14269;BME280;7218;51.480;7.006;2024-02-21T06:55:56;77341.84;;;-143.00;79.80
14269;BME280;7218;51.480;7.006;2024-02-21T06:58:24;77315.91;;;-143.00;79.63
14269;BME280;7218;51.480;7.006;2024-02-21T07:00:51;77335.88;;;-143.00;79.22
14269;BME280;7218;51.480;7.006;2024-02-21T07:03:17;77329.88;;;-143.00;79.15
14269;BME280;7218;51.480;7.006;2024-02-21T07:05:44;77353.84;;;-143.00;79.63
14269;BME280;7218;51.480;7.006;2024-02-21T07:08:10;77359.84;;;-143.00;80.24
14269;BME280;7218;51.480;7.006;2024-02-21T07:10:37;77343.84;;;-143.00;79.82
14269;BME280;7218;51.480;7.006;2024-02-21T07:13:03;77327.88;;;-143.00;78.75
14269;BME280;7218;51.480;7.006;2024-02-21T07:15:31;77347.84;;;-143.00;79.49
14269;BME280;7218;51.480;7.006;2024-02-21T07:17:58;77363.81;;;-143.00;80.06
14269;BME280;7218;51.480;7.006;2024-02-21T07:20:25;77335.88;;;-143.00;79.47
14269;BME280;7218;51.480;7.006;2024-02-21T07:22:51;77361.84;;;-143.00;80.02
14269;BME280;7218;51.480;7.006;2024-02-21T07:25:18;77343.84;;;-143.00;79.36
14269;BME280;7218;51.480;7.006;2024-02-21T07:27:44;77299.94;;;-143.00;77.94
14269;BME280;7218;51.480;7.006;2024-02-21T07:30:12;77291.94;;;-143.00;78.18
14269;BME280;7218;51.480;7.006;2024-02-21T07:32:40;77285.94;;;-143.00;77.76
14269;BME280;7218;51.480;7.006;2024-02-21T07:35:07;77269.97;;;-143.00;77.40
14269;BME280;7218;51.480;7.006;2024-02-21T07:37:36;77291.94;;;-143.00;77.86
14269;BME280;7218;51.480;7.006;2024-02-21T07:40:03;77289.94;;;-143.00;78.11
14269;BME280;7218;51.480;7.006;2024-02-21T07:42:30;77323.88;;;-143.00;78.48
14269;BME280;7218;51.480;7.006;2024-02-21T07:44:56;77287.94;;;-143.00;77.86
14269;BME280;7218;51.480;7.006;2024-02-21T07:47:23;77277.97;;;-143.00;77.51
14269;BME280;7218;51.480;7.006;2024-02-21T07:49:51;77307.91;;;-143.00;78.39
14269;BME280;7218;51.480;7.006;2024-02-21T07:52:17;77275.97;;;-143.00;77.31
14269;BME280;7218;51.480;7.006;2024-02-21T07:54:44;77311.91;;;-143.00;77.98
14269;BME280;7218;51.480;7.006;2024-02-21T07:57:10;77285.94;;;-143.00;77.72
14269;BME280;7218;51.480;7.006;2024-02-21T07:59:37;77287.94;;;-143.00;77.54
14269;BME280;7218;51.480;7.006;2024-02-21T08:02:03;77283.94;;;-143.00;77.93
14269;BME280;7218;51.480;7.006;2024-02-21T08:04:32;77293.94;;;-143.00;78.11
14269;BME280;7218;51.480;7.006;2024-02-21T08:06:59;77252.00;;;-143.00;77.56
14269;BME280;7218;51.480;7.006;2024-02-21T08:09:29;77254.00;;;-143.00;77.47
14269;BME280;7218;51.480;7.006;2024-02-21T08:11:56;77287.94;;;-143.00;78.11
14269;BME280;7218;51.480;7.006;2024-02-21T08:14:22;77279.94;;;-143.00;78.20
14269;BME280;7218;51.480;7.006;2024-02-21T08:16:50;77291.94;;;-143.00;79.08
14269;BME280;7218;51.480;7.006;2024-02-21T08:19:18;77283.94;;;-143.00;78.71
14269;BME280;7218;51.480;7.006;2024-02-21T08:21:44;77267.97;;;-143.00;78.92
14269;BME280;7218;51.480;7.006;2024-02-21T08:24:13;77287.94;;;-143.00;79.82
14269;BME280;7218;51.480;7.006;2024-02-21T08:26:40;77299.94;;;-143.00;79.93
14269;BME280;7218;51.480;7.006;2024-02-21T08:29:06;77267.97;;;-143.00;78.58
14269;BME280;7218;51.480;7.006;2024-02-21T08:31:33;77291.94;;;-143.00;79.85
14269;BME280;7218;51.480;7.006;2024-02-21T08:34:00;77236.03;;;-143.00;78.45
14269;BME280;7218;51.480;7.006;2024-02-21T08:36:30;77269.97;;;-143.00;79.38
14269;BME280;7218;51.480;7.006;2024-02-21T08:38:57;77252.00;;;-143.00;79.15
14269;BME280;7218;51.480;7.006;2024-02-21T08:41:26;77256.00;;;-143.00;80.22
14269;BME280;7218;51.480;7.006;2024-02-21T08:43:53;77275.97;;;-143.00;80.46
14269;BME280;7218;51.480;7.006;2024-02-21T08:46:20;77267.97;;;-143.00;80.58
14269;BME280;7218;51.480;7.006;2024-02-21T08:48:46;77273.97;;;-143.00;80.80
14269;BME280;7218;51.480;7.006;2024-02-21T08:51:13;77285.94;;;-143.00;79.92
14269;BME280;7218;51.480;7.006;2024-02-21T08:53:40;77277.97;;;-143.00;79.48
14269;BME280;7218;51.480;7.006;2024-02-21T08:56:06;77315.91;;;-143.00;80.36
14269;BME280;7218;51.480;7.006;2024-02-21T08:58:35;77291.94;;;-143.00;79.86
14269;BME280;7218;51.480;7.006;2024-02-21T09:01:02;77260.00;;;-143.00;78.60
14269;BME280;7218;51.480;7.006;2024-02-21T09:03:31;77240.00;;;-143.00;78.23
14269;BME280;7218;51.480;7.006;2024-02-21T09:05:57;77222.03;;;-143.00;77.58
14269;BME280;7218;51.480;7.006;2024-02-21T09:08:24;77214.06;;;-143.00;77.55
14269;BME280;7218;51.480;7.006;2024-02-21T09:10:50;77226.03;;;-143.00;78.03
14269;BME280;7218;51.480;7.006;2024-02-21T09:13:17;77206.06;;;-143.00;77.71
14269;BME280;7218;51.480;7.006;2024-02-21T09:15:45;77260.00;;;-143.00;77.84
14269;BME280;7218;51.480;7.006;2024-02-21T09:18:11;77246.00;;;-143.00;77.81
14269;BME280;7218;51.480;7.006;2024-02-21T09:20:38;77206.06;;;-143.00;76.91
14269;BME280;7218;51.480;7.006;2024-02-21T09:23:04;77204.06;;;-143.00;76.20
14269;BME280;7218;51.480;7.006;2024-02-21T09:25:31;77206.06;;;-143.00;76.83
14269;BME280;7218;51.480;7.006;2024-02-21T09:27:57;77164.13;;;-143.00;75.24
14269;BME280;7218;51.480;7.006;2024-02-21T09:30:24;77164.13;;;-143.00;75.44
14269;BME280;7218;51.480;7.006;2024-02-21T09:32:52;77176.13;;;-143.00;75.70
14269;BME280;7218;51.480;7.006;2024-02-21T09:35:19;77184.09;;;-143.00;74.89
14269;BME280;7218;51.480;7.006;2024-02-21T09:37:47;77188.09;;;-143.00;74.71
14269;BME280;7218;51.480;7.006;2024-02-21T09:40:15;77126.19;;;-143.00;73.81
14269;BME280;7218;51.480;7.006;2024-02-21T09:42:42;77058.31;;;-143.00;72.50
14269;BME280;7218;51.480;7.006;2024-02-21T09:45:13;77104.22;;;-143.00;72.87
14269;BME280;7218;51.480;7.006;2024-02-21T09:47:50;77116.22;;;-143.00;73.17
14269;BME280;7218;51.480;7.006;2024-02-21T09:50:21;77124.19;;;-143.00;73.07
14269;BME280;7218;51.480;7.006;2024-02-21T09:52:49;77132.19;;;-143.00;73.16
14269;BME280;7218;51.480;7.006;2024-02-21T09:55:18;77074.28;;;-143.00;71.86
14269;BME280;7218;51.480;7.006;2024-02-21T09:57:45;77108.22;;;-143.00;72.14
14269;BME280;7218;51.480;7.006;2024-02-21T10:00:13;77092.25;;;-143.00;72.01
14269;BME280;7218;51.480;7.006;2024-02-21T10:02:47;77120.19;;;-143.00;71.91
14269;BME280;7218;51.480;7.006;2024-02-21T10:05:13;77164.13;;;-143.00;73.13
14269;BME280;7218;51.480;7.006;2024-02-21T10:07:41;77146.16;;;-143.00;72.95
14269;BME280;7218;51.480;7.006;2024-02-21T10:10:08;77138.19;;;-143.00;73.29
14269;BME280;7218;51.480;7.006;2024-02-21T10:12:35;77124.19;;;-143.00;72.67
14269;BME280;7218;51.480;7.006;2024-02-21T10:15:01;77150.16;;;-143.00;72.78
14269;BME280;7218;51.480;7.006;2024-02-21T10:17:28;77120.19;;;-143.00;72.27
14269;BME280;7218;51.480;7.006;2024-02-21T10:19:55;77120.19;;;-143.00;72.65
14269;BME280;7218;51.480;7.006;2024-02-21T10:22:21;77082.25;;;-143.00;71.51
14269;BME280;7218;51.480;7.006;2024-02-21T10:24:50;77082.25;;;-143.00;71.18
14269;BME280;7218;51.480;7.006;2024-02-21T10:27:16;77128.19;;;-143.00;72.50
14269;BME280;7218;51.480;7.006;2024-02-21T10:29:48;77072.28;;;-143.00;71.35
14269;BME280;7218;51.480;7.006;2024-02-21T10:32:15;77070.28;;;-143.00;70.88
14269;BME280;7218;51.480;7.006;2024-02-21T10:34:42;77056.31;;;-143.00;70.30
14269;BME280;7218;51.480;7.006;2024-02-21T10:37:10;77072.28;;;-143.00;71.05
14269;BME280;7218;51.480;7.006;2024-02-21T10:39:38;77016.38;;;-143.00;70.08
14269;BME280;7218;51.480;7.006;2024-02-21T10:42:06;77050.31;;;-143.00;69.79
14269;BME280;7218;51.480;7.006;2024-02-21T10:44:33;77018.38;;;-143.00;69.60
14269;BME280;7218;51.480;7.006;2024-02-21T10:47:04;77008.38;;;-143.00;69.02
14269;BME280;7218;51.480;7.006;2024-02-21T10:49:36;77042.31;;;-143.00;69.32
14269;BME280;7218;51.480;7.006;2024-02-21T10:52:08;77040.34;;;-143.00;69.27
14269;BME280;7218;51.480;7.006;2024-02-21T10:54:44;77038.34;;;-143.00;69.52
14269;BME280;7218;51.480;7.006;2024-02-21T10:57:13;77006.38;;;-143.00;69.00
14269;BME280;7218;51.480;7.006;2024-02-21T10:59:40;76956.47;;;-143.00;68.08
14269;BME280;7218;51.480;7.006;2024-02-21T11:02:07;76932.50;;;-143.00;67.43
14269;BME280;7218;51.480;7.006;2024-02-21T11:04:34;76962.47;;;-143.00;67.17
14269;BME280;7218;51.480;7.006;2024-02-21T11:07:03;76918.53;;;-143.00;66.70
14269;BME280;7218;51.480;7.006;2024-02-21T11:09:30;76880.59;;;-143.00;66.10
14269;BME280;7218;51.480;7.006;2024-02-21T11:11:57;76832.66;;;-143.00;64.73
14269;BME280;7218;51.480;7.006;2024-02-21T11:14:27;76828.66;;;-143.00;64.26
14269;BME280;7218;51.480;7.006;2024-02-21T11:16:58;76776.75;;;-143.00;64.12
14269;BME280;7218;51.480;7.006;2024-02-21T11:19:26;76858.63;;;-143.00;65.68
14269;BME280;7218;51.480;7.006;2024-02-21T11:21:54;76872.59;;;-143.00;65.87
14269;BME280;7218;51.480;7.006;2024-02-21T11:24:28;76846.66;;;-143.00;66.53
14269;BME280;7218;51.480;7.006;2024-02-21T11:26:56;76832.66;;;-143.00;64.90
14269;BME280;7218;51.480;7.006;2024-02-21T11:29:23;76808.72;;;-143.00;64.21
14269;BME280;7218;51.480;7.006;2024-02-21T11:31:52;76724.84;;;-143.00;62.64
14269;BME280;7218;51.480;7.006;2024-02-21T11:34:19;76782.75;;;-143.00;63.44
14269;BME280;7218;51.480;7.006;2024-02-21T11:36:50;76744.81;;;-143.00;64.14
14269;BME280;7218;51.480;7.006;2024-02-21T11:39:21;76740.81;;;-143.00;63.46
14269;BME280;7218;51.480;7.006;2024-02-21T11:42:08;76784.75;;;-143.00;64.14
14269;BME280;7218;51.480;7.006;2024-02-21T11:44:35;76732.84;;;-143.00;63.74
14269;BME280;7218;51.480;7.006;2024-02-21T11:47:04;76700.88;;;-143.00;63.08
14269;BME280;7218;51.480;7.006;2024-02-21T11:49:36;76702.88;;;-143.00;64.11
14269;BME280;7218;51.480;7.006;2024-02-21T11:52:04;76700.88;;;-143.00;63.52
14269;BME280;7218;51.480;7.006;2024-02-21T11:54:30;76664.94;;;-143.00;62.97
14269;BME280;7218;51.480;7.006;2024-02-21T11:56:57;76738.81;;;-143.00;64.01
14269;BME280;7218;51.480;7.006;2024-02-21T11:59:23;76668.94;;;-143.00;62.46
14269;BME280;7218;51.480;7.006;2024-02-21T12:01:50;76676.94;;;-143.00;62.69
14269;BME280;7218;51.480;7.006;2024-02-21T12:04:19;76656.97;;;-143.00;61.70
14269;BME280;7218;51.480;7.006;2024-02-21T12:06:46;76680.91;;;-143.00;62.25
14269;BME280;7218;51.480;7.006;2024-02-21T12:09:13;76686.91;;;-143.00;62.70
14269;BME280;7218;51.480;7.006;2024-02-21T12:11:40;76676.94;;;-143.00;62.29
14269;BME280;7218;51.480;7.006;2024-02-21T12:14:07;76631.00;;;-143.00;61.40
14269;BME280;7218;51.480;7.006;2024-02-21T12:16:35;76625.00;;;-143.00;61.25
14269;BME280;7218;51.480;7.006;2024-02-21T12:19:02;76641.00;;;-143.00;61.92
14269;BME280;7218;51.480;7.006;2024-02-21T12:21:33;76565.13;;;-143.00;60.50
14269;BME280;7218;51.480;7.006;2024-02-21T12:24:11;76605.06;;;-143.00;60.81
14269;BME280;7218;51.480;7.006;2024-02-21T12:26:38;76543.16;;;-143.00;59.88
14269;BME280;7218;51.480;7.006;2024-02-21T12:29:04;76531.19;;;-143.00;58.70
14269;BME280;7218;51.480;7.006;2024-02-21T12:31:31;76585.09;;;-143.00;59.50
14269;BME280;7218;51.480;7.006;2024-02-21T12:33:57;76581.09;;;-143.00;59.35
14269;BME280;7218;51.480;7.006;2024-02-21T12:36:25;76595.06;;;-143.00;59.67
14269;BME280;7218;51.480;7.006;2024-02-21T12:38:52;76625.00;;;-143.00;59.93
14269;BME280;7218;51.480;7.006;2024-02-21T12:41:19;76591.06;;;-143.00;59.05
14269;BME280;7218;51.480;7.006;2024-02-21T12:43:45;76515.19;;;-143.00;58.28
14269;BME280;7218;51.480;7.006;2024-02-21T12:46:12;76485.25;;;-143.00;56.74
14269;BME280;7218;51.480;7.006;2024-02-21T12:48:39;76497.22;;;-143.00;57.07
14269;BME280;7218;51.480;7.006;2024-02-21T12:51:05;76501.22;;;-143.00;57.44